Time;durP1;ratioP1;P1;durP2;ratioP2;P2;SDS_P1;SDS_P2;PMS_P1;PMS_P2;Temp;Humidity;BMP_temperature;BMP_pressure;BME280_temperature;BME280_humidity;BME280_pressure;Samples;Min_cycle;Max_cycle;Signal;HPM_P1;HPM_P2
2022/08/11 00:01:52;;;;;;;4.20;3.80;;;18.70;99.90;;;;;;5071355;28;20454;-75
2022/08/11 00:04:56;;;;;;;3.83;3.53;;;18.70;99.90;;;;;;5071713;28;20486;-74
2022/08/11 00:07:51;;;;;;;3.60;3.30;;;18.60;99.90;;;;;;5072140;28;20449;-75
2022/08/11 00:10:55;;;;;;;4.07;3.70;;;18.60;99.90;;;;;;5072245;28;20550;-73
2022/08/11 00:13:53;;;;;;;4.00;3.60;;;18.60;99.90;;;;;;5074321;28;20490;-75
2022/08/11 00:16:42;;;;;;;4.37;3.97;;;18.50;99.90;;;;;;5075776;28;20473;-75
2022/08/11 00:19:36;;;;;;;5.57;4.10;;;18.50;99.90;;;;;;5074999;28;20466;-73
2022/08/11 00:23:08;;;;;;;4.10;3.70;;;18.50;99.90;;;;;;5075195;28;20855;-73
2022/08/11 00:26:20;;;;;;;3.90;3.60;;;18.40;99.90;;;;;;5074942;28;20481;-72
2022/08/11 00:29:26;;;;;;;4.60;4.17;;;18.30;99.90;;;;;;5073811;28;20546;-73
2022/08/11 00:33:00;;;;;;;4.00;3.60;;;18.30;99.90;;;;;;5074055;28;20934;-73
2022/08/11 00:35:58;;;;;;;4.17;3.70;;;18.30;99.90;;;;;;5072112;28;20559;-73
2022/08/11 00:38:54;;;;;;;3.57;3.27;;;18.20;99.90;;;;;;5075287;28;20549;-73
2022/08/11 00:42:11;;;;;;;4.43;3.83;;;18.20;99.90;;;;;;5073576;28;20487;-73
2022/08/11 00:45:23;;;;;;;4.80;4.40;;;18.20;99.90;;;;;;5071297;28;21388;-73
2022/08/11 00:48:29;;;;;;;3.70;3.50;;;18.10;99.90;;;;;;5073013;28;20449;-73
2022/08/11 00:51:59;;;;;;;5.07;4.17;;;18.10;99.90;;;;;;5073211;28;20469;-73
2022/08/11 00:55:32;;;;;;;9.60;4.70;;;18.00;99.90;;;;;;5073320;28;20477;-74
2022/08/11 00:59:17;;;;;;;4.00;3.80;;;18.00;99.90;;;;;;5072527;28;20460;-73
2022/08/11 01:02:44;;;;;;;5.60;4.00;;;17.90;99.90;;;;;;5072808;28;22592;-73
2022/08/11 01:06:05;;;;;;;4.67;3.20;;;17.90;99.90;;;;;;5071856;28;20523;-74
2022/08/11 01:09:36;;;;;;;4.03;3.73;;;17.90;99.90;;;;;;5075038;28;20453;-73
2022/08/11 01:12:45;;;;;;;4.40;4.00;;;17.80;99.90;;;;;;5070746;28;20981;-73
2022/08/11 01:16:11;;;;;;;3.77;3.47;;;17.70;99.90;;;;;;5075864;28;20474;-73
2022/08/11 01:19:45;;;;;;;4.23;3.73;;;17.70;99.90;;;;;;5072950;28;20530;-73
2022/08/11 01:23:40;;;;;;;3.83;3.53;;;17.60;99.90;;;;;;5008862;28;21996;-73
2022/08/11 01:27:35;;;;;;;4.27;3.97;;;17.60;99.90;;;;;;5004507;28;20464;-73
2022/08/11 01:31:23;;;;;;;5.90;4.23;;;17.60;99.90;;;;;;5045404;28;20446;-73
2022/08/11 01:35:03;;;;;;;4.73;4.23;;;17.50;99.90;;;;;;5055214;28;20532;-73
2022/08/11 01:38:31;;;;;;;5.13;4.07;;;17.50;99.90;;;;;;5069957;28;20492;-74
2022/08/11 01:45:22;;;;;;;5.63;4.90;;;17.40;99.90;;;;;;5070687;28;20690;-73
2022/08/11 01:48:47;;;;;;;4.33;3.87;;;17.40;99.90;;;;;;5069299;28;20454;-73
2022/08/11 01:52:11;;;;;;;5.93;4.13;;;17.30;99.90;;;;;;5071199;28;20532;-73
2022/08/11 01:55:33;;;;;;;3.87;3.60;;;17.30;99.90;;;;;;5070832;28;20473;-73
2022/08/11 01:58:49;;;;;;;4.40;4.00;;;17.30;99.90;;;;;;5068893;28;20537;-73
2022/08/11 02:01:57;;;;;;;5.97;4.00;;;17.20;99.90;;;;;;5069119;28;20465;-73
2022/08/11 02:04:56;;;;;;;4.60;4.20;;;17.20;99.90;;;;;;5071390;28;20994;-73
2022/08/11 02:07:56;;;;;;;5.13;4.33;;;17.10;99.90;;;;;;5078797;28;20546;-73
2022/08/11 02:11:30;;;;;;;6.17;4.20;;;17.10;99.90;;;;;;5078777;28;20445;-73
2022/08/11 02:14:31;;;;;;;4.03;3.83;;;17.10;99.90;;;;;;5080585;28;20460;-73
2022/08/11 02:17:37;;;;;;;5.07;4.17;;;17.10;99.90;;;;;;5077267;28;21460;-73
2022/08/11 02:23:58;;;;;;;4.50;4.20;;;17.00;99.90;;;;;;5080084;28;20560;-73
2022/08/11 02:27:02;;;;;;;5.10;4.60;;;16.90;99.90;;;;;;5078717;28;20480;-73
2022/08/11 02:30:06;;;;;;;4.40;4.10;;;16.90;99.90;;;;;;5080033;28;20552;-73
2022/08/11 02:33:33;;;;;;;5.13;4.33;;;16.90;99.90;;;;;;5078353;28;20469;-73
2022/08/11 02:36:53;;;;;;;4.80;4.43;;;16.80;99.90;;;;;;5078100;28;21269;-73
2022/08/11 02:40:09;;;;;;;3.77;3.53;;;16.80;99.90;;;;;;5077244;28;20465;-73
2022/08/11 02:43:33;;;;;;;5.97;4.10;;;16.80;99.90;;;;;;5076656;28;20523;-73
2022/08/11 02:46:53;;;;;;;4.63;4.33;;;16.70;99.90;;;;;;4995312;28;20485;-73
2022/08/11 02:50:20;;;;;;;4.40;4.10;;;16.70;99.90;;;;;;5062157;28;20599;-73
2022/08/11 02:54:06;;;;;;;4.87;4.37;;;16.70;99.90;;;;;;5077427;28;20461;-73
2022/08/11 02:57:13;;;;;;;4.70;4.30;;;16.70;99.90;;;;;;5077720;28;20452;-73
2022/08/11 03:00:18;;;;;;;4.63;4.23;;;16.60;99.90;;;;;;5073048;28;20453;-73
2022/08/11 03:03:46;;;;;;;5.07;4.60;;;16.60;99.90;;;;;;5076233;28;20546;-73
2022/08/11 03:06:59;;;;;;;4.17;3.87;;;16.50;99.90;;;;;;5079668;28;20446;-73
2022/08/11 03:09:58;;;;;;;4.37;4.07;;;16.50;99.90;;;;;;5079155;28;20528;-73
2022/08/11 03:16:47;;;;;;;4.60;4.30;;;16.40;99.90;;;;;;5074835;28;20979;-73
2022/08/11 03:20:30;;;;;;;4.57;4.10;;;16.40;99.90;;;;;;5081203;28;20441;-73
2022/08/11 03:23:55;;;;;;;4.37;3.97;;;16.30;99.90;;;;;;5062929;28;20461;-73
2022/08/11 03:26:58;;;;;;;4.60;4.20;;;16.30;99.90;;;;;;5074683;28;20469;-73
2022/08/11 03:30:08;;;;;;;4.83;4.37;;;16.30;99.90;;;;;;5073057;28;20457;-73
2022/08/11 03:36:53;;;;;;;4.40;4.10;;;16.20;99.90;;;;;;5079012;28;20438;-73
2022/08/11 03:43:54;;;;;;;4.00;3.70;;;16.20;99.90;;;;;;5077888;28;20461;-73
2022/08/11 03:47:11;;;;;;;4.20;3.90;;;16.10;99.90;;;;;;5076902;28;20461;-73
2022/08/11 03:50:16;;;;;;;5.13;4.73;;;16.10;99.90;;;;;;5078848;28;20482;-73
2022/08/11 03:53:21;;;;;;;4.63;4.33;;;16.10;99.90;;;;;;5074441;28;20990;-73
2022/08/11 03:56:49;;;;;;;5.00;4.50;;;16.10;99.90;;;;;;5075790;28;20946;-72
2022/08/11 04:00:16;;;;;;;4.57;4.17;;;16.10;99.90;;;;;;5074265;28;20551;-72
2022/08/11 04:03:45;;;;;;;4.53;3.87;;;16.10;99.90;;;;;;5069178;28;20554;-72
2022/08/11 04:07:05;;;;;;;4.07;3.77;;;16.00;99.90;;;;;;5069873;28;20515;-72
2022/08/11 04:10:46;;;;;;;4.83;4.30;;;16.10;99.90;;;;;;5073713;28;20535;-73
2022/08/11 04:18:06;;;;;;;4.33;4.03;;;16.00;99.90;;;;;;5070283;28;20552;-73
2022/08/11 04:21:51;;;;;;;4.20;3.90;;;15.90;99.90;;;;;;5078310;28;20528;-73
2022/08/11 04:24:59;;;;;;;4.90;4.43;;;15.90;99.90;;;;;;5001049;28;21020;-73
2022/08/11 04:28:06;;;;;;;4.50;4.20;;;15.90;99.90;;;;;;5075390;28;20532;-73
2022/08/11 04:31:17;;;;;;;5.57;4.20;;;15.90;99.90;;;;;;5073267;28;20540;-73
2022/08/11 04:34:49;;;;;;;4.40;4.00;;;15.90;99.90;;;;;;5079038;28;20467;-73
2022/08/11 04:38:33;;;;;;;4.40;4.00;;;16.00;99.90;;;;;;5079128;28;20445;-72
2022/08/11 04:45:51;;;;;;;4.97;4.57;;;15.90;99.90;;;;;;5071365;28;20481;-73
2022/08/11 05:03:30;;;;;;;5.00;4.60;;;16.00;99.90;;;;;;5073374;28;20496;-73
2022/08/11 05:07:06;;;;;;;4.60;4.20;;;16.00;99.90;;;;;;5061940;28;20575;-73
2022/08/11 05:10:27;;;;;;;6.70;4.20;;;16.10;99.90;;;;;;5073168;28;20486;-73
2022/08/11 05:36:39;;;;;;;4.90;4.43;;;16.40;99.90;;;;;;5053176;28;20994;-74
2022/08/11 05:59:01;;;;;;;9.00;5.97;;;16.90;99.90;;;;;;5058738;28;21055;-74
2022/08/11 06:01:53;;;;;;;5.03;4.53;;;17.00;99.90;;;;;;5064119;28;20463;-74
2022/08/11 06:04:42;;;;;;;5.27;4.80;;;17.10;99.90;;;;;;5058232;28;20569;-74
2022/08/11 06:07:33;;;;;;;6.10;4.50;;;17.20;99.90;;;;;;5062054;28;20458;-73
2022/08/11 06:10:40;;;;;;;4.17;3.87;;;17.30;99.90;;;;;;5057564;28;20594;-73
2022/08/11 06:13:29;;;;;;;4.80;4.37;;;17.40;99.90;;;;;;5038571;28;20446;-73
2022/08/11 06:16:22;;;;;;;5.43;5.00;;;17.50;99.90;;;;;;5048446;28;20541;-73
2022/08/11 06:19:13;;;;;;;5.50;5.10;;;17.60;99.90;;;;;;5057409;28;20954;-74
2022/08/11 06:22:07;;;;;;;7.93;4.60;;;17.70;99.90;;;;;;5045166;28;20465;-74
2022/08/11 06:24:57;;;;;;;5.77;4.90;;;17.80;99.90;;;;;;5041539;28;20541;-73
2022/08/11 06:27:47;;;;;;;5.33;4.83;;;17.80;99.90;;;;;;5046114;28;20627;-74
2022/08/11 06:30:41;;;;;;;8.40;4.60;;;18.00;99.90;;;;;;5061382;28;20548;-74
2022/08/11 06:33:38;;;;;;;5.37;4.97;;;18.10;99.90;;;;;;5061782;28;20449;-73
2022/08/11 06:36:39;;;;;;;5.30;4.63;;;18.20;99.90;;;;;;5057682;28;20515;-74
2022/08/11 06:39:36;;;;;;;6.73;4.80;;;18.20;99.90;;;;;;5054225;28;20988;-73
2022/08/11 06:42:35;;;;;;;5.47;4.80;;;18.30;99.90;;;;;;5063425;28;20517;-73
2022/08/11 06:45:30;;;;;;;5.13;4.73;;;18.40;99.90;;;;;;5057767;28;20496;-74
2022/08/11 06:48:21;;;;;;;5.57;5.07;;;18.50;99.90;;;;;;5057020;28;20824;-73
2022/08/11 06:51:13;;;;;;;4.80;4.43;;;18.60;99.90;;;;;;5050384;28;20445;-74
2022/08/11 06:54:06;;;;;;;7.33;4.87;;;18.60;99.90;;;;;;5049204;28;20958;-75
2022/08/11 07:00:28;;;;;;;4.97;4.50;;;18.80;99.90;;;;;;5048841;28;20972;-74
2022/08/11 07:03:18;;;;;;;5.27;4.80;;;18.90;99.90;;;;;;5049869;28;20471;-74
2022/08/11 07:06:25;;;;;;;5.13;4.40;;;19.00;99.90;;;;;;5057226;28;20985;-74
2022/08/11 07:16:27;;;;;;;4.67;4.30;;;19.30;99.90;;;;;;5066856;28;20468;-74
2022/08/11 07:28:57;;;;;;;4.67;3.80;;;19.70;99.90;;;;;;5062191;28;20448;-75
2022/08/11 07:31:50;;;;;;;4.30;3.57;;;19.80;99.90;;;;;;5059180;28;20547;-76
2022/08/11 07:34:52;;;;;;;4.30;3.77;;;19.90;99.90;;;;;;5063516;28;21045;-74
2022/08/11 07:37:43;;;;;;;4.30;3.90;;;20.00;99.90;;;;;;5066972;28;20449;-75
2022/08/11 07:40:34;;;;;;;4.83;3.67;;;20.00;99.90;;;;;;5063239;28;20523;-74
2022/08/11 07:43:24;;;;;;;3.90;3.50;;;20.10;99.90;;;;;;5059999;28;20454;-74
2022/08/11 07:52:31;;;;;;;4.40;3.57;;;20.40;99.90;;;;;;5061953;28;20454;-75
2022/08/11 07:55:24;;;;;;;4.23;3.87;;;20.60;99.90;;;;;;5062488;28;20974;-75
2022/08/11 08:21:10;;;;;;;5.00;3.73;;;21.40;99.90;;;;;;5056909;28;20460;-72
2022/08/11 08:24:00;;;;;;;3.77;3.47;;;21.60;99.90;;;;;;5059260;28;20456;-71
2022/08/11 08:26:58;;;;;;;4.60;3.43;;;21.70;99.90;;;;;;5065052;28;21021;-72
2022/08/11 08:32:56;;;;;;;4.50;3.53;;;21.90;99.90;;;;;;5058428;28;20462;-73
2022/08/11 08:35:45;;;;;;;3.80;3.50;;;22.00;99.90;;;;;;5056445;28;20476;-71
2022/08/11 08:38:47;;;;;;;3.97;3.13;;;22.20;99.90;;;;;;5061655;28;20454;-71
2022/08/11 08:41:38;;;;;;;4.07;3.77;;;22.30;99.90;;;;;;5057168;28;21208;-73
2022/08/11 08:44:27;;;;;;;3.43;3.13;;;22.40;99.90;;;;;;5038769;28;20557;-73
2022/08/11 08:47:31;;;;;;;4.90;3.30;;;22.60;99.90;;;;;;5054313;28;20540;-72
2022/08/11 08:53:46;;;;;;;3.60;3.40;;;22.80;99.90;;;;;;5045569;28;20449;-72
2022/08/11 08:56:43;;;;;;;4.33;3.63;;;22.90;99.90;;;;;;5047490;28;20453;-72
2022/08/11 08:59:35;;;;;;;3.90;3.60;;;23.00;99.90;;;;;;5052307;28;20482;-71
2022/08/11 09:02:37;;;;;;;5.00;4.20;;;23.20;99.90;;;;;;5046859;28;20526;-71
2022/08/11 09:05:26;;;;;;;3.33;3.13;;;23.30;99.90;;;;;;5049328;28;20471;-72
2022/08/11 09:08:17;;;;;;;3.40;3.10;;;23.40;99.90;;;;;;5045958;28;20532;-72
2022/08/11 09:14:12;;;;;;;3.27;2.93;;;23.60;99.90;;;;;;5048439;28;21051;-72
2022/08/11 09:17:02;;;;;;;3.17;2.87;;;23.70;99.90;;;;;;5040203;28;20464;-72
2022/08/11 09:19:57;;;;;;;4.37;2.70;;;23.80;99.90;;;;;;5046053;28;20559;-72
2022/08/11 09:29:23;;;;;;;3.23;2.60;;;24.00;99.90;;;;;;5046305;28;20500;-71
2022/08/11 09:32:13;;;;;;;6.10;3.33;;;24.10;99.90;;;;;;5044408;28;20456;-72
2022/08/11 09:35:04;;;;;;;3.60;3.30;;;24.20;99.90;;;;;;5047502;28;20533;-72
2022/08/11 09:41:04;;;;;;;2.90;2.70;;;24.30;99.90;;;;;;5050498;28;20624;-74
2022/08/11 09:47:11;;;;;;;2.90;2.70;;;24.50;99.90;;;;;;5043876;28;20493;-75
2022/08/11 09:50:02;;;;;;;4.20;2.60;;;24.60;99.90;;;;;;5043655;28;20462;-74
2022/08/11 09:52:51;;;;;;;3.27;3.07;;;24.60;99.90;;;;;;5042993;28;20552;-73
2022/08/11 09:58:12;;;;;;;3.97;2.67;;;24.70;99.90;;;;;;5044754;28;20473;-74
2022/08/11 09:59:09;;;;;;;2.70;2.50;;;24.80;99.90;;;;;;5041978;28;20862;-75
2022/08/11 10:02:01;;;;;;;2.80;2.60;;;24.90;99.90;;;;;;5048402;28;20457;-72
2022/08/11 10:07:00;;;;;;;2.90;2.70;;;25.00;99.90;;;;;;5050048;28;20472;-75
2022/08/11 10:08:10;;;;;;;2.83;2.63;;;25.10;99.90;;;;;;5056068;28;20485;-72
2022/08/11 10:11:01;;;;;;;2.80;2.60;;;25.20;99.90;;;;;;5064948;28;20464;-73
2022/08/11 10:17:21;;;;;;;2.57;2.40;;;25.30;99.90;;;;;;5057554;28;20551;-72
2022/08/11 10:20:12;;;;;;;3.00;2.70;;;25.40;99.90;;;;;;5043509;28;20488;-72
2022/08/11 10:35:48;;;;;;;2.97;2.60;;;25.70;99.90;;;;;;5049966;28;20473;-72
2022/08/11 10:38:39;;;;;;;2.73;2.57;;;25.80;99.90;;;;;;5055072;28;20456;-71
2022/08/11 10:45:00;;;;;;;2.87;2.50;;;26.00;99.90;;;;;;5059863;28;20615;-72
2022/08/11 10:47:47;;;;;;;5.53;2.63;;;26.00;99.90;;;;;;5044688;28;20491;-72
2022/08/11 11:00:01;;;;;;;2.13;2.03;;;26.30;99.90;;;;;;5056591;28;20458;-73
2022/08/11 11:02:50;;;;;;;3.43;2.50;;;26.30;99.90;;;;;;5054966;28;20575;-73
2022/08/11 11:06:08;;;;;;;3.93;2.47;;;26.50;99.90;;;;;;5060685;28;20520;-72
2022/08/11 11:09:21;;;;;;;2.27;2.07;;;26.60;99.90;;;;;;5059764;28;20514;-71
2022/08/11 11:18:32;;;;;;;2.30;2.10;;;26.80;99.90;;;;;;5068199;28;20553;-73
2022/08/11 11:21:21;;;;;;;2.30;2.20;;;26.90;99.90;;;;;;5062056;28;20450;-72
2022/08/11 11:24:21;;;;;;;2.90;2.53;;;27.00;99.90;;;;;;5055511;28;20469;-71
2022/08/11 11:27:20;;;;;;;1.97;1.87;;;27.10;99.90;;;;;;5063008;28;20474;-71
2022/08/11 11:30:13;;;;;;;3.17;1.97;;;27.20;99.90;;;;;;5059611;28;20449;-76
2022/08/11 11:33:08;;;;;;;2.60;2.30;;;27.30;99.90;;;;;;5058032;28;20445;-71
2022/08/11 11:36:12;;;;;;;2.80;2.00;;;27.40;99.90;;;;;;5043410;28;21220;-71
2022/08/11 11:39:01;;;;;;;2.27;2.07;;;27.40;99.90;;;;;;5047259;28;21094;-72
2022/08/11 11:41:51;;;;;;;3.33;2.23;;;27.50;99.90;;;;;;5035724;28;26674;-71
2022/08/11 11:44:44;;;;;;;3.53;2.27;;;27.60;99.90;;;;;;5054338;28;20465;-72
2022/08/11 11:47:34;;;;;;;2.60;2.10;;;27.70;99.90;;;;;;5059458;28;20474;-71
2022/08/11 11:50:25;;;;;;;2.40;2.20;;;27.70;99.90;;;;;;5056048;28;20500;-72
2022/08/11 11:53:19;;;;;;;2.10;2.00;;;27.80;99.90;;;;;;5059746;28;20526;-72
2022/08/11 11:56:08;;;;;;;2.20;2.10;;;27.90;99.90;;;;;;5058564;28;20974;-72
2022/08/11 12:02:04;;;;;;;1.90;1.80;;;28.10;99.90;;;;;;5060307;28;20564;-71
2022/08/11 12:05:01;;;;;;;3.30;2.00;;;28.20;99.90;;;;;;5058622;28;20470;-71
2022/08/11 12:14:09;;;;;;;2.20;2.10;;;28.50;99.90;;;;;;5070389;28;20555;-70
2022/08/11 12:17:01;;;;;;;2.00;1.90;;;28.60;99.90;;;;;;5061380;28;20898;-71
2022/08/11 12:19:51;;;;;;;19.70;3.77;;;28.80;99.90;;;;;;5070459;28;20453;-72
2022/08/11 12:29:12;;;;;;;2.30;1.93;;;29.10;99.90;;;;;;5070975;28;20530;-71
2022/08/11 12:32:07;;;;;;;1.93;1.80;;;29.20;99.90;;;;;;5066045;28;20502;-71
2022/08/11 12:34:58;;;;;;;2.03;1.93;;;29.30;99.90;;;;;;5069065;28;20477;-70
2022/08/11 12:37:54;;;;;;;2.30;2.00;;;29.40;99.90;;;;;;5068192;28;20490;-71
2022/08/11 12:51:55;;;;;;;3.20;2.17;;;29.70;99.90;;;;;;5049755;28;23240;-72
2022/08/11 12:54:21;;;;;;;1.87;1.70;;;29.90;99.60;;;;;;5047865;28;20477;-71
2022/08/11 13:06:50;;;;;;;1.90;1.80;;;30.40;96.20;;;;;;5059875;28;20575;-70
2022/08/11 13:09:39;;;;;;;1.90;1.70;;;30.50;97.80;;;;;;5056043;28;20483;-70
2022/08/11 13:12:46;;;;;;;1.80;1.70;;;30.60;97.60;;;;;;5061690;28;22475;-69
2022/08/11 13:15:36;;;;;;;1.90;1.77;;;30.70;95.50;;;;;;5058401;28;20467;-70
2022/08/11 13:18:26;;;;;;;2.20;1.90;;;30.70;95.20;;;;;;5055574;28;20457;-70
2022/08/11 13:21:18;;;;;;;2.90;2.07;;;30.90;97.10;;;;;;5063316;28;20977;-70
2022/08/11 13:24:11;;;;;;;2.13;1.93;;;31.00;98.50;;;;;;5055101;28;20973;-70
2022/08/11 13:27:00;;;;;;;3.03;2.00;;;31.20;97.50;;;;;;5057117;28;20502;-71
2022/08/11 13:31:09;;;;;;;1.87;1.77;;;31.40;94.80;;;;;;5058687;28;20631;-71
2022/08/11 13:33:10;;;;;;;2.20;2.00;;;31.50;96.50;;;;;;5063611;28;20454;-70
2022/08/11 13:36:03;;;;;;;2.17;1.97;;;31.70;94.90;;;;;;5067145;28;20505;-71
2022/08/11 13:38:53;;;;;;;1.97;1.87;;;31.80;92.90;;;;;;5060898;28;20592;-70
2022/08/11 13:41:46;;;;;;;2.50;2.00;;;31.80;93.90;;;;;;5065023;28;20520;-70
2022/08/11 13:44:38;;;;;;;1.93;1.83;;;32.00;92.30;;;;;;5058354;28;20656;-71
2022/08/11 13:47:27;;;;;;;2.13;1.93;;;32.10;92.40;;;;;;5056051;28;20445;-72
2022/08/11 13:50:17;;;;;;;1.77;1.63;;;32.30;92.90;;;;;;5064314;28;20687;-72
2022/08/11 13:53:05;;;;;;;1.80;1.70;;;32.40;91.00;;;;;;5060442;28;20548;-71
2022/08/11 13:56:01;;;;;;;2.07;1.50;;;32.50;92.00;;;;;;5061068;28;20627;-72
2022/08/11 13:58:58;;;;;;;3.57;2.20;;;32.80;92.30;;;;;;5042436;28;20835;-73
2022/08/11 14:01:49;;;;;;;1.70;1.60;;;32.90;91.30;;;;;;5059679;28;21660;-69
2022/08/11 14:05:06;;;;;;;2.63;2.10;;;32.90;88.60;;;;;;5066987;28;20504;-71
2022/08/11 14:07:59;;;;;;;1.87;1.73;;;32.90;86.00;;;;;;5066612;28;20485;-73
2022/08/11 14:13:36;;;;;;;2.17;2.07;;;32.90;88.20;;;;;;5070572;28;20536;-71
2022/08/11 14:14:24;;;;;;;2.33;2.13;;;33.10;85.60;;;;;;5062699;28;20539;-71
2022/08/11 14:17:16;;;;;;;1.90;1.80;;;33.20;83.60;;;;;;5062061;28;20540;-71
2022/08/11 14:22:05;;;;;;;2.17;2.07;;;33.40;84.50;;;;;;5069251;28;20450;-72
2022/08/11 14:23:37;;;;;;;1.80;1.70;;;33.40;83.90;;;;;;5056735;28;21042;-71
2022/08/11 14:26:27;;;;;;;1.73;1.63;;;33.70;81.10;;;;;;5065445;28;21024;-72
2022/08/11 14:29:21;;;;;;;2.20;1.60;;;34.10;81.60;;;;;;5072125;28;20993;-72
2022/08/11 14:32:14;;;;;;;1.90;1.80;;;34.40;76.60;;;;;;5054673;28;20495;-72
2022/08/11 14:35:04;;;;;;;1.77;1.67;;;34.60;77.30;;;;;;5070224;28;20953;-71
2022/08/11 14:37:52;;;;;;;1.70;1.60;;;34.90;76.60;;;;;;5062475;28;20502;-72
2022/08/11 14:47:05;;;;;;;2.80;2.00;;;35.80;72.40;;;;;;5067114;28;20456;-72
2022/08/11 14:50:17;;;;;;;2.13;2.00;;;36.60;70.10;;;;;;5066722;28;20906;-72
2022/08/11 14:53:09;;;;;;;1.70;1.60;;;37.30;69.00;;;;;;5061651;28;20465;-72
2022/08/11 14:59:13;;;;;;;1.77;1.67;;;37.30;67.80;;;;;;5064707;28;20449;-72
2022/08/11 15:05:13;;;;;;;2.60;1.53;;;36.60;67.50;;;;;;5069009;28;20746;-71
2022/08/11 15:08:02;;;;;;;1.70;1.60;;;36.30;68.50;;;;;;5065917;28;20459;-71
2022/08/11 15:10:52;;;;;;;3.10;2.00;;;36.00;70.90;;;;;;5051202;28;20513;-72
2022/08/11 15:13:41;;;;;;;1.97;1.70;;;35.80;71.90;;;;;;5059818;28;20493;-72
2022/08/11 15:24:18;;;;;;;2.03;1.90;;;35.30;72.60;;;;;;5057545;28;20564;-72
2022/08/11 15:26:05;;;;;;;2.00;1.80;;;34.80;74.00;;;;;;5056530;28;20493;-72
2022/08/11 15:38:23;;;;;;;2.50;1.97;;;33.60;75.90;;;;;;5063192;28;20555;-73
2022/08/11 15:47:59;;;;;;;2.50;2.10;;;33.00;78.50;;;;;;5069828;28;20456;-73
2022/08/11 15:50:56;;;;;;;2.30;1.77;;;32.80;78.80;;;;;;5069143;28;20465;-73
2022/08/11 15:53:56;;;;;;;1.90;1.70;;;32.80;78.90;;;;;;5065245;28;21020;-73
2022/08/11 15:56:46;;;;;;;2.20;1.83;;;32.60;78.00;;;;;;5072663;28;20458;-73
2022/08/11 16:05:50;;;;;;;1.80;1.70;;;32.10;79.70;;;;;;5067016;28;20508;-74
2022/08/11 16:08:41;;;;;;;2.50;2.03;;;32.00;80.50;;;;;;5062103;28;20488;-72
2022/08/11 16:11:34;;;;;;;1.90;1.70;;;32.00;81.20;;;;;;5070142;28;20455;-73
2022/08/11 16:17:33;;;;;;;2.03;1.93;;;31.80;81.10;;;;;;5068952;28;20604;-71
2022/08/11 16:20:24;;;;;;;2.63;2.20;;;31.80;81.20;;;;;;5072401;28;20533;-71
2022/08/11 16:23:14;;;;;;;4.40;2.10;;;31.70;79.60;;;;;;5063751;28;20465;-71
2022/08/11 16:26:02;;;;;;;3.30;2.20;;;31.70;81.90;;;;;;5075221;28;20891;-71
2022/08/11 16:29:14;;;;;;;2.67;1.80;;;31.70;82.50;;;;;;5072527;28;20472;-71
2022/08/11 16:32:19;;;;;;;2.07;1.93;;;31.60;81.90;;;;;;5071308;28;20537;-71
2022/08/11 16:38:35;;;;;;;2.70;1.93;;;31.50;80.40;;;;;;5067933;28;20442;-72
2022/08/11 16:47:46;;;;;;;1.87;1.77;;;31.30;81.40;;;;;;5071714;28;20437;-73
2022/08/11 16:50:58;;;;;;;3.53;2.17;;;31.30;81.90;;;;;;5074551;28;20472;-73
2022/08/11 16:53:51;;;;;;;2.23;2.03;;;31.30;82.00;;;;;;5069865;28;20460;-72
2022/08/11 16:59:12;;;;;;;1.97;1.87;;;31.20;82.70;;;;;;5072839;28;20973;-73
2022/08/11 17:00:14;;;;;;;2.40;2.20;;;31.20;82.00;;;;;;5045955;28;20461;-72
2022/08/11 17:18:57;;;;;;;3.40;1.80;;;30.40;84.80;;;;;;5057097;28;20536;-72
2022/08/11 17:24:51;;;;;;;2.57;2.17;;;30.10;85.20;;;;;;5057706;28;20509;-73
2022/08/11 17:27:42;;;;;;;1.80;1.70;;;29.90;85.60;;;;;;5063054;28;20465;-73
2022/08/11 17:36:44;;;;;;;2.07;1.97;;;29.40;85.00;;;;;;5056448;28;20461;-72
2022/08/11 17:39:34;;;;;;;2.00;1.90;;;29.20;85.30;;;;;;5052888;28;20452;-71
2022/08/11 17:48:42;;;;;;;2.20;2.00;;;28.90;87.90;;;;;;5062580;28;20478;-73
2022/08/11 18:01:01;;;;;;;2.80;1.87;;;28.30;87.30;;;;;;5055983;28;20568;-75
2022/08/11 18:03:59;;;;;;;1.80;1.70;;;28.20;88.30;;;;;;5063317;28;20484;-75
2022/08/11 18:06:49;;;;;;;4.27;2.03;;;28.10;87.60;;;;;;5059193;28;21010;-74
